sensor_id;sensor_type;location;lat;lon;timestamp;P1;durP1;ratioP1;P2;durP2;ratioP2
59607;SDS011;45426;44.726;10.390;2023-03-23T00:02:19;5.30;;;2.92;;
59607;SDS011;45426;44.726;10.390;2023-03-23T00:04:48;4.38;;;2.60;;
59607;SDS011;45426;44.726;10.390;2023-03-23T00:07:14;3.70;;;2.60;;
59607;SDS011;45426;44.726;10.390;2023-03-23T00:09:52;4.80;;;2.72;;
59607;SDS011;45426;44.726;10.390;2023-03-23T00:12:26;6.85;;;2.88;;
59607;SDS011;45426;44.726;10.390;2023-03-23T00:15:05;6.15;;;2.78;;
59607;SDS011;45426;44.726;10.390;2023-03-23T00:17:38;3.90;;;2.47;;
59607;SDS011;45426;44.726;10.390;2023-03-23T00:20:05;4.93;;;2.80;;
59607;SDS011;45426;44.726;10.390;2023-03-23T00:22:31;5.35;;;2.92;;
59607;SDS011;45426;44.726;10.390;2023-03-23T00:25:02;5.05;;;2.75;;
59607;SDS011;45426;44.726;10.390;2023-03-23T00:27:31;4.97;;;2.92;;
59607;SDS011;45426;44.726;10.390;2023-03-23T00:29:56;4.93;;;2.80;;
59607;SDS011;45426;44.726;10.390;2023-03-23T00:32:22;4.90;;;2.90;;
59607;SDS011;45426;44.726;10.390;2023-03-23T00:34:54;4.53;;;2.70;;
59607;SDS011;45426;44.726;10.390;2023-03-23T00:37:21;5.60;;;2.90;;
59607;SDS011;45426;44.726;10.390;2023-03-23T00:39:46;7.13;;;3.13;;
59607;SDS011;45426;44.726;10.390;2023-03-23T00:42:12;3.92;;;2.78;;
59607;SDS011;45426;44.726;10.390;2023-03-23T00:44:40;4.80;;;2.83;;
59607;SDS011;45426;44.726;10.390;2023-03-23T00:47:05;4.82;;;2.92;;
59607;SDS011;45426;44.726;10.390;2023-03-23T00:49:33;7.43;;;3.08;;
59607;SDS011;45426;44.726;10.390;2023-03-23T00:51:59;5.03;;;3.00;;
59607;SDS011;45426;44.726;10.390;2023-03-23T00:54:26;5.70;;;2.67;;
59607;SDS011;45426;44.726;10.390;2023-03-23T00:56:51;7.63;;;3.40;;
59607;SDS011;45426;44.726;10.390;2023-03-23T00:59:18;6.03;;;2.90;;
59607;SDS011;45426;44.726;10.390;2023-03-23T01:01:44;6.28;;;2.95;;
59607;SDS011;45426;44.726;10.390;2023-03-23T01:04:10;4.68;;;2.90;;
59607;SDS011;45426;44.726;10.390;2023-03-23T01:06:38;7.40;;;2.97;;
59607;SDS011;45426;44.726;10.390;2023-03-23T01:09:12;5.90;;;2.80;;
59607;SDS011;45426;44.726;10.390;2023-03-23T01:11:40;7.82;;;3.08;;
59607;SDS011;45426;44.726;10.390;2023-03-23T01:14:06;5.50;;;2.92;;
59607;SDS011;45426;44.726;10.390;2023-03-23T01:16:32;7.05;;;2.90;;
59607;SDS011;45426;44.726;10.390;2023-03-23T01:18:58;4.88;;;2.90;;
59607;SDS011;45426;44.726;10.390;2023-03-23T01:21:23;5.60;;;3.00;;
59607;SDS011;45426;44.726;10.390;2023-03-23T01:23:50;5.25;;;2.88;;
59607;SDS011;45426;44.726;10.390;2023-03-23T01:26:17;4.93;;;2.80;;
59607;SDS011;45426;44.726;10.390;2023-03-23T01:28:44;5.65;;;2.72;;
59607;SDS011;45426;44.726;10.390;2023-03-23T01:31:12;8.48;;;2.92;;
59607;SDS011;45426;44.726;10.390;2023-03-23T01:33:40;5.47;;;2.85;;
59607;SDS011;45426;44.726;10.390;2023-03-23T01:36:08;8.10;;;3.10;;
59607;SDS011;45426;44.726;10.390;2023-03-23T01:38:36;4.40;;;2.67;;
59607;SDS011;45426;44.726;10.390;2023-03-23T01:41:02;4.78;;;2.60;;
59607;SDS011;45426;44.726;10.390;2023-03-23T01:43:29;5.40;;;2.78;;
59607;SDS011;45426;44.726;10.390;2023-03-23T01:45:54;5.18;;;3.00;;
59607;SDS011;45426;44.726;10.390;2023-03-23T01:48:24;3.97;;;2.80;;
59607;SDS011;45426;44.726;10.390;2023-03-23T01:50:58;4.03;;;2.70;;
59607;SDS011;45426;44.726;10.390;2023-03-23T01:53:35;4.47;;;2.58;;
59607;SDS011;45426;44.726;10.390;2023-03-23T01:56:03;3.92;;;2.60;;
59607;SDS011;45426;44.726;10.390;2023-03-23T01:58:32;4.40;;;2.63;;
59607;SDS011;45426;44.726;10.390;2023-03-23T02:01:00;7.07;;;2.92;;
59607;SDS011;45426;44.726;10.390;2023-03-23T02:03:28;3.95;;;2.65;;
59607;SDS011;45426;44.726;10.390;2023-03-23T02:05:56;4.47;;;2.65;;
59607;SDS011;45426;44.726;10.390;2023-03-23T02:08:28;3.85;;;2.40;;
59607;SDS011;45426;44.726;10.390;2023-03-23T02:10:57;6.35;;;2.72;;
59607;SDS011;45426;44.726;10.390;2023-03-23T02:13:23;4.30;;;2.60;;
59607;SDS011;45426;44.726;10.390;2023-03-23T02:16:09;4.03;;;2.72;;
59607;SDS011;45426;44.726;10.390;2023-03-23T02:26:48;4.68;;;3.03;;
59607;SDS011;45426;44.726;10.390;2023-03-23T02:32:11;4.65;;;2.42;;
59607;SDS011;45426;44.726;10.390;2023-03-23T02:35:14;5.75;;;2.80;;
59607;SDS011;45426;44.726;10.390;2023-03-23T02:37:45;5.15;;;2.75;;
59607;SDS011;45426;44.726;10.390;2023-03-23T02:40:35;3.90;;;2.67;;
59607;SDS011;45426;44.726;10.390;2023-03-23T02:43:06;5.30;;;2.67;;
59607;SDS011;45426;44.726;10.390;2023-03-23T02:45:34;5.47;;;3.05;;
59607;SDS011;45426;44.726;10.390;2023-03-23T02:48:02;4.72;;;2.70;;
59607;SDS011;45426;44.726;10.390;2023-03-23T02:50:30;7.85;;;3.70;;
59607;SDS011;45426;44.726;10.390;2023-03-23T02:52:58;6.13;;;2.60;;
59607;SDS011;45426;44.726;10.390;2023-03-23T02:55:26;4.78;;;2.70;;
59607;SDS011;45426;44.726;10.390;2023-03-23T02:57:53;5.85;;;2.88;;
59607;SDS011;45426;44.726;10.390;2023-03-23T03:00:20;5.22;;;3.00;;
59607;SDS011;45426;44.726;10.390;2023-03-23T03:02:47;4.75;;;3.03;;
59607;SDS011;45426;44.726;10.390;2023-03-23T03:10:57;5.30;;;3.07;;
59607;SDS011;45426;44.726;10.390;2023-03-23T03:13:32;5.88;;;3.30;;
59607;SDS011;45426;44.726;10.390;2023-03-23T03:21:51;5.68;;;3.10;;
59607;SDS011;45426;44.726;10.390;2023-03-23T03:24:19;5.82;;;3.13;;
59607;SDS011;45426;44.726;10.390;2023-03-23T03:26:48;5.80;;;3.28;;
59607;SDS011;45426;44.726;10.390;2023-03-23T03:29:17;6.90;;;3.65;;
59607;SDS011;45426;44.726;10.390;2023-03-23T03:31:45;5.68;;;3.00;;
59607;SDS011;45426;44.726;10.390;2023-03-23T03:34:14;5.47;;;3.10;;
59607;SDS011;45426;44.726;10.390;2023-03-23T03:36:42;7.03;;;3.25;;
59607;SDS011;45426;44.726;10.390;2023-03-23T03:39:10;5.05;;;2.85;;
59607;SDS011;45426;44.726;10.390;2023-03-23T03:41:37;5.25;;;3.10;;
59607;SDS011;45426;44.726;10.390;2023-03-23T03:44:04;6.47;;;3.22;;
59607;SDS011;45426;44.726;10.390;2023-03-23T03:46:31;5.55;;;3.20;;
59607;SDS011;45426;44.726;10.390;2023-03-23T03:48:57;6.35;;;2.90;;
59607;SDS011;45426;44.726;10.390;2023-03-23T03:51:23;6.97;;;2.90;;
59607;SDS011;45426;44.726;10.390;2023-03-23T03:53:50;5.25;;;3.08;;
59607;SDS011;45426;44.726;10.390;2023-03-23T03:56:15;5.20;;;2.97;;
59607;SDS011;45426;44.726;10.390;2023-03-23T03:58:41;4.63;;;2.75;;
59607;SDS011;45426;44.726;10.390;2023-03-23T04:01:07;3.85;;;2.58;;
59607;SDS011;45426;44.726;10.390;2023-03-23T04:03:35;5.68;;;2.90;;
59607;SDS011;45426;44.726;10.390;2023-03-23T04:06:01;7.05;;;3.05;;
59607;SDS011;45426;44.726;10.390;2023-03-23T04:08:27;4.70;;;2.83;;
59607;SDS011;45426;44.726;10.390;2023-03-23T04:10:53;5.13;;;2.80;;
59607;SDS011;45426;44.726;10.390;2023-03-23T04:13:18;4.90;;;2.60;;
59607;SDS011;45426;44.726;10.390;2023-03-23T04:15:45;5.57;;;2.60;;
59607;SDS011;45426;44.726;10.390;2023-03-23T04:18:11;5.60;;;2.47;;
59607;SDS011;45426;44.726;10.390;2023-03-23T04:20:37;5.32;;;2.60;;
59607;SDS011;45426;44.726;10.390;2023-03-23T04:23:03;4.85;;;2.80;;
59607;SDS011;45426;44.726;10.390;2023-03-23T04:25:28;4.07;;;2.33;;
59607;SDS011;45426;44.726;10.390;2023-03-23T04:27:57;4.47;;;2.50;;
59607;SDS011;45426;44.726;10.390;2023-03-23T04:30:26;4.35;;;2.60;;
59607;SDS011;45426;44.726;10.390;2023-03-23T04:32:55;4.85;;;2.50;;
59607;SDS011;45426;44.726;10.390;2023-03-23T04:35:22;7.60;;;2.60;;
59607;SDS011;45426;44.726;10.390;2023-03-23T04:37:52;4.97;;;2.65;;
59607;SDS011;45426;44.726;10.390;2023-03-23T04:40:18;5.90;;;2.75;;
59607;SDS011;45426;44.726;10.390;2023-03-23T04:42:45;4.22;;;2.70;;
59607;SDS011;45426;44.726;10.390;2023-03-23T04:45:11;4.72;;;2.90;;
59607;SDS011;45426;44.726;10.390;2023-03-23T04:47:40;4.20;;;2.72;;
59607;SDS011;45426;44.726;10.390;2023-03-23T04:50:10;6.80;;;3.05;;
59607;SDS011;45426;44.726;10.390;2023-03-23T04:52:37;7.20;;;3.08;;
59607;SDS011;45426;44.726;10.390;2023-03-23T04:55:06;5.53;;;2.92;;
59607;SDS011;45426;44.726;10.390;2023-03-23T04:57:33;6.63;;;2.92;;
59607;SDS011;45426;44.726;10.390;2023-03-23T05:00:00;5.35;;;3.03;;
59607;SDS011;45426;44.726;10.390;2023-03-23T05:02:30;7.00;;;3.40;;
59607;SDS011;45426;44.726;10.390;2023-03-23T05:04:56;5.07;;;3.00;;
59607;SDS011;45426;44.726;10.390;2023-03-23T05:07:23;5.10;;;3.10;;
59607;SDS011;45426;44.726;10.390;2023-03-23T05:09:48;5.28;;;3.35;;
59607;SDS011;45426;44.726;10.390;2023-03-23T05:12:14;7.28;;;3.25;;
59607;SDS011;45426;44.726;10.390;2023-03-23T05:14:41;5.90;;;3.33;;
59607;SDS011;45426;44.726;10.390;2023-03-23T05:17:07;7.18;;;3.40;;
59607;SDS011;45426;44.726;10.390;2023-03-23T05:19:32;5.68;;;3.20;;
59607;SDS011;45426;44.726;10.390;2023-03-23T05:21:58;5.93;;;3.10;;
59607;SDS011;45426;44.726;10.390;2023-03-23T05:24:29;7.00;;;3.13;;
59607;SDS011;45426;44.726;10.390;2023-03-23T05:26:57;6.75;;;3.40;;
59607;SDS011;45426;44.726;10.390;2023-03-23T05:29:23;7.50;;;3.55;;
59607;SDS011;45426;44.726;10.390;2023-03-23T05:31:49;7.57;;;3.40;;
59607;SDS011;45426;44.726;10.390;2023-03-23T05:34:14;7.18;;;3.33;;
59607;SDS011;45426;44.726;10.390;2023-03-23T05:36:41;6.95;;;3.13;;
59607;SDS011;45426;44.726;10.390;2023-03-23T05:39:09;8.32;;;3.42;;
59607;SDS011;45426;44.726;10.390;2023-03-23T05:41:35;5.60;;;3.22;;
59607;SDS011;45426;44.726;10.390;2023-03-23T05:44:01;7.15;;;2.97;;
59607;SDS011;45426;44.726;10.390;2023-03-23T05:46:27;5.75;;;2.90;;
59607;SDS011;45426;44.726;10.390;2023-03-23T05:48:53;4.97;;;2.80;;
59607;SDS011;45426;44.726;10.390;2023-03-23T05:51:19;3.72;;;2.60;;
59607;SDS011;45426;44.726;10.390;2023-03-23T05:53:44;4.32;;;2.60;;
59607;SDS011;45426;44.726;10.390;2023-03-23T05:56:10;5.38;;;2.40;;
59607;SDS011;45426;44.726;10.390;2023-03-23T05:58:36;3.75;;;2.28;;
59607;SDS011;45426;44.726;10.390;2023-03-23T06:01:05;3.45;;;2.40;;
59607;SDS011;45426;44.726;10.390;2023-03-23T06:03:31;5.47;;;2.60;;
59607;SDS011;45426;44.726;10.390;2023-03-23T06:05:56;6.57;;;2.90;;
59607;SDS011;45426;44.726;10.390;2023-03-23T06:08:23;5.82;;;2.70;;
59607;SDS011;45426;44.726;10.390;2023-03-23T06:10:49;5.53;;;2.80;;
59607;SDS011;45426;44.726;10.390;2023-03-23T06:13:14;4.72;;;2.83;;
59607;SDS011;45426;44.726;10.390;2023-03-23T06:15:40;6.68;;;2.92;;
59607;SDS011;45426;44.726;10.390;2023-03-23T06:18:05;5.47;;;3.00;;
59607;SDS011;45426;44.726;10.390;2023-03-23T06:20:31;7.35;;;3.05;;
59607;SDS011;45426;44.726;10.390;2023-03-23T06:22:57;8.38;;;3.08;;
59607;SDS011;45426;44.726;10.390;2023-03-23T06:25:23;7.72;;;3.08;;
59607;SDS011;45426;44.726;10.390;2023-03-23T06:27:49;7.82;;;2.92;;
59607;SDS011;45426;44.726;10.390;2023-03-23T06:30:17;4.57;;;2.83;;
59607;SDS011;45426;44.726;10.390;2023-03-23T06:32:43;6.65;;;2.90;;
59607;SDS011;45426;44.726;10.390;2023-03-23T06:35:11;4.85;;;2.80;;
59607;SDS011;45426;44.726;10.390;2023-03-23T06:37:37;6.85;;;3.10;;
59607;SDS011;45426;44.726;10.390;2023-03-23T06:40:03;6.03;;;2.90;;
59607;SDS011;45426;44.726;10.390;2023-03-23T06:42:33;4.57;;;3.10;;
59607;SDS011;45426;44.726;10.390;2023-03-23T06:44:59;7.80;;;2.90;;
59607;SDS011;45426;44.726;10.390;2023-03-23T06:47:26;6.10;;;3.33;;
59607;SDS011;45426;44.726;10.390;2023-03-23T06:49:54;5.10;;;2.90;;
59607;SDS011;45426;44.726;10.390;2023-03-23T06:52:21;6.63;;;3.20;;
59607;SDS011;45426;44.726;10.390;2023-03-23T06:54:48;7.47;;;2.97;;
59607;SDS011;45426;44.726;10.390;2023-03-23T06:57:13;3.35;;;2.58;;
59607;SDS011;45426;44.726;10.390;2023-03-23T06:59:39;5.90;;;3.00;;
59607;SDS011;45426;44.726;10.390;2023-03-23T07:02:05;7.13;;;3.00;;
59607;SDS011;45426;44.726;10.390;2023-03-23T07:04:31;5.95;;;3.03;;
59607;SDS011;45426;44.726;10.390;2023-03-23T07:06:57;6.93;;;3.10;;
59607;SDS011;45426;44.726;10.390;2023-03-23T07:09:22;6.45;;;3.10;;
59607;SDS011;45426;44.726;10.390;2023-03-23T07:11:48;7.30;;;2.90;;
59607;SDS011;45426;44.726;10.390;2023-03-23T07:14:16;6.65;;;3.03;;
59607;SDS011;45426;44.726;10.390;2023-03-23T07:16:41;6.47;;;3.08;;
59607;SDS011;45426;44.726;10.390;2023-03-23T07:19:07;5.10;;;3.08;;
59607;SDS011;45426;44.726;10.390;2023-03-23T07:21:32;7.45;;;3.65;;
59607;SDS011;45426;44.726;10.390;2023-03-23T07:23:58;6.38;;;3.28;;
59607;SDS011;45426;44.726;10.390;2023-03-23T07:26:23;7.30;;;3.35;;
59607;SDS011;45426;44.726;10.390;2023-03-23T07:28:49;6.60;;;3.20;;
59607;SDS011;45426;44.726;10.390;2023-03-23T07:31:14;6.32;;;2.90;;
59607;SDS011;45426;44.726;10.390;2023-03-23T07:33:41;5.00;;;3.05;;
59607;SDS011;45426;44.726;10.390;2023-03-23T07:36:06;6.40;;;3.30;;
59607;SDS011;45426;44.726;10.390;2023-03-23T07:38:33;7.05;;;3.35;;
59607;SDS011;45426;44.726;10.390;2023-03-23T07:40:58;6.63;;;3.17;;
59607;SDS011;45426;44.726;10.390;2023-03-23T07:43:23;8.20;;;3.63;;
59607;SDS011;45426;44.726;10.390;2023-03-23T07:45:49;11.13;;;3.38;;
59607;SDS011;45426;44.726;10.390;2023-03-23T07:48:14;6.25;;;3.35;;
59607;SDS011;45426;44.726;10.390;2023-03-23T07:50:40;8.73;;;3.50;;
59607;SDS011;45426;44.726;10.390;2023-03-23T07:53:06;7.13;;;3.58;;
59607;SDS011;45426;44.726;10.390;2023-03-23T07:55:32;6.47;;;3.70;;
59607;SDS011;45426;44.726;10.390;2023-03-23T07:57:58;8.30;;;4.18;;
59607;SDS011;45426;44.726;10.390;2023-03-23T08:00:24;9.32;;;4.28;;
59607;SDS011;45426;44.726;10.390;2023-03-23T08:02:51;9.45;;;4.78;;
59607;SDS011;45426;44.726;10.390;2023-03-23T08:05:18;9.65;;;4.60;;
59607;SDS011;45426;44.726;10.390;2023-03-23T08:07:45;8.93;;;4.13;;
59607;SDS011;45426;44.726;10.390;2023-03-23T08:10:12;9.68;;;4.40;;
59607;SDS011;45426;44.726;10.390;2023-03-23T08:12:40;10.35;;;4.32;;
59607;SDS011;45426;44.726;10.390;2023-03-23T08:15:07;9.43;;;4.90;;
59607;SDS011;45426;44.726;10.390;2023-03-23T08:17:34;9.57;;;4.65;;
59607;SDS011;45426;44.726;10.390;2023-03-23T08:20:01;10.48;;;4.90;;
59607;SDS011;45426;44.726;10.390;2023-03-23T08:22:33;8.35;;;4.30;;
59607;SDS011;45426;44.726;10.390;2023-03-23T08:25:01;13.73;;;4.90;;
59607;SDS011;45426;44.726;10.390;2023-03-23T08:27:28;12.88;;;6.03;;
59607;SDS011;45426;44.726;10.390;2023-03-23T08:29:54;10.95;;;5.30;;
59607;SDS011;45426;44.726;10.390;2023-03-23T08:32:19;11.00;;;5.20;;
59607;SDS011;45426;44.726;10.390;2023-03-23T08:34:45;11.02;;;5.32;;
59607;SDS011;45426;44.726;10.390;2023-03-23T08:37:10;14.68;;;5.57;;
59607;SDS011;45426;44.726;10.390;2023-03-23T08:39:36;14.82;;;6.40;;
59607;SDS011;45426;44.726;10.390;2023-03-23T08:42:02;14.50;;;6.22;;
59607;SDS011;45426;44.726;10.390;2023-03-23T08:44:28;13.02;;;5.95;;
59607;SDS011;45426;44.726;10.390;2023-03-23T08:46:54;13.43;;;6.60;;
59607;SDS011;45426;44.726;10.390;2023-03-23T08:49:22;12.20;;;6.10;;
59607;SDS011;45426;44.726;10.390;2023-03-23T08:51:48;13.23;;;6.40;;
59607;SDS011;45426;44.726;10.390;2023-03-23T08:54:14;11.68;;;6.55;;
59607;SDS011;45426;44.726;10.390;2023-03-23T08:56:39;13.80;;;6.60;;
59607;SDS011;45426;44.726;10.390;2023-03-23T08:59:06;12.98;;;6.43;;
59607;SDS011;45426;44.726;10.390;2023-03-23T09:01:32;14.25;;;6.70;;
59607;SDS011;45426;44.726;10.390;2023-03-23T09:03:58;13.07;;;6.20;;
59607;SDS011;45426;44.726;10.390;2023-03-23T09:06:24;12.55;;;6.30;;
59607;SDS011;45426;44.726;10.390;2023-03-23T09:08:50;12.25;;;6.20;;
59607;SDS011;45426;44.726;10.390;2023-03-23T09:11:15;14.65;;;6.57;;
59607;SDS011;45426;44.726;10.390;2023-03-23T09:13:41;14.10;;;6.80;;
59607;SDS011;45426;44.726;10.390;2023-03-23T09:16:06;14.45;;;6.63;;
59607;SDS011;45426;44.726;10.390;2023-03-23T09:18:33;16.08;;;6.85;;
59607;SDS011;45426;44.726;10.390;2023-03-23T09:21:00;14.85;;;7.32;;
59607;SDS011;45426;44.726;10.390;2023-03-23T09:23:26;11.95;;;6.65;;
59607;SDS011;45426;44.726;10.390;2023-03-23T09:25:52;13.77;;;7.53;;
59607;SDS011;45426;44.726;10.390;2023-03-23T09:28:17;15.95;;;7.20;;
59607;SDS011;45426;44.726;10.390;2023-03-23T09:30:44;15.73;;;7.05;;
59607;SDS011;45426;44.726;10.390;2023-03-23T09:33:10;17.92;;;7.80;;
59607;SDS011;45426;44.726;10.390;2023-03-23T09:35:36;17.15;;;7.95;;
59607;SDS011;45426;44.726;10.390;2023-03-23T09:38:03;14.55;;;7.63;;
59607;SDS011;45426;44.726;10.390;2023-03-23T09:40:33;16.60;;;8.00;;
59607;SDS011;45426;44.726;10.390;2023-03-23T09:51:20;16.15;;;8.77;;
59607;SDS011;45426;44.726;10.390;2023-03-23T09:54:18;18.73;;;8.85;;
59607;SDS011;45426;44.726;10.390;2023-03-23T09:57:11;17.33;;;8.57;;
59607;SDS011;45426;44.726;10.390;2023-03-23T10:05:36;14.70;;;8.50;;
59607;SDS011;45426;44.726;10.390;2023-03-23T10:08:10;14.95;;;8.27;;
59607;SDS011;45426;44.726;10.390;2023-03-23T10:10:44;17.38;;;9.00;;
59607;SDS011;45426;44.726;10.390;2023-03-23T10:13:23;16.33;;;8.50;;
59607;SDS011;45426;44.726;10.390;2023-03-23T10:16:17;14.15;;;8.30;;
59607;SDS011;45426;44.726;10.390;2023-03-23T10:21:29;14.73;;;8.02;;
59607;SDS011;45426;44.726;10.390;2023-03-23T10:28:59;14.63;;;8.57;;
59607;SDS011;45426;44.726;10.390;2023-03-23T10:31:43;15.55;;;8.70;;
59607;SDS011;45426;44.726;10.390;2023-03-23T10:35:12;15.35;;;8.05;;
59607;SDS011;45426;44.726;10.390;2023-03-23T10:42:27;15.65;;;7.50;;
59607;SDS011;45426;44.726;10.390;2023-03-23T10:44:56;13.75;;;8.50;;
59607;SDS011;45426;44.726;10.390;2023-03-23T10:47:23;14.82;;;7.90;;
59607;SDS011;45426;44.726;10.390;2023-03-23T10:49:50;12.60;;;7.47;;
59607;SDS011;45426;44.726;10.390;2023-03-23T10:55:05;16.20;;;7.93;;
59607;SDS011;45426;44.726;10.390;2023-03-23T10:57:34;12.90;;;7.55;;
59607;SDS011;45426;44.726;10.390;2023-03-23T11:00:17;17.13;;;8.40;;
59607;SDS011;45426;44.726;10.390;2023-03-23T11:02:45;14.43;;;7.78;;
59607;SDS011;45426;44.726;10.390;2023-03-23T11:05:41;13.48;;;8.30;;
59607;SDS011;45426;44.726;10.390;2023-03-23T11:08:21;14.75;;;7.75;;
59607;SDS011;45426;44.726;10.390;2023-03-23T11:10:54;14.43;;;7.10;;
59607;SDS011;45426;44.726;10.390;2023-03-23T11:13:22;11.68;;;6.57;;
59607;SDS011;45426;44.726;10.390;2023-03-23T11:15:53;12.93;;;6.35;;
59607;SDS011;45426;44.726;10.390;2023-03-23T11:18:26;12.70;;;6.75;;
59607;SDS011;45426;44.726;10.390;2023-03-23T11:21:01;12.40;;;6.47;;
59607;SDS011;45426;44.726;10.390;2023-03-23T11:23:29;12.80;;;6.82;;
59607;SDS011;45426;44.726;10.390;2023-03-23T11:28:30;11.65;;;5.75;;
59607;SDS011;45426;44.726;10.390;2023-03-23T11:33:28;13.40;;;6.28;;
59607;SDS011;45426;44.726;10.390;2023-03-23T11:35:55;11.77;;;6.15;;
59607;SDS011;45426;44.726;10.390;2023-03-23T11:38:22;12.70;;;6.53;;
59607;SDS011;45426;44.726;10.390;2023-03-23T11:40:52;11.18;;;6.05;;
59607;SDS011;45426;44.726;10.390;2023-03-23T11:43:22;12.38;;;5.97;;
59607;SDS011;45426;44.726;10.390;2023-03-23T11:48:43;11.60;;;6.40;;
59607;SDS011;45426;44.726;10.390;2023-03-23T11:51:24;11.75;;;6.57;;
59607;SDS011;45426;44.726;10.390;2023-03-23T11:56:36;10.60;;;5.78;;
59607;SDS011;45426;44.726;10.390;2023-03-23T11:59:05;13.85;;;6.40;;
59607;SDS011;45426;44.726;10.390;2023-03-23T12:12:34;15.15;;;7.13;;
59607;SDS011;45426;44.726;10.390;2023-03-23T12:15:14;13.65;;;7.20;;
59607;SDS011;45426;44.726;10.390;2023-03-23T12:28:51;14.07;;;7.95;;
59607;SDS011;45426;44.726;10.390;2023-03-23T12:31:44;16.30;;;7.75;;
59607;SDS011;45426;44.726;10.390;2023-03-23T12:42:59;13.05;;;7.30;;
59607;SDS011;45426;44.726;10.390;2023-03-23T12:48:12;14.27;;;7.13;;
59607;SDS011;45426;44.726;10.390;2023-03-23T12:53:33;13.85;;;6.90;;
59607;SDS011;45426;44.726;10.390;2023-03-23T12:56:10;13.05;;;6.82;;
59607;SDS011;45426;44.726;10.390;2023-03-23T13:01:12;15.38;;;8.40;;
59607;SDS011;45426;44.726;10.390;2023-03-23T13:03:51;15.00;;;8.00;;
59607;SDS011;45426;44.726;10.390;2023-03-23T13:06:29;14.07;;;8.32;;
59607;SDS011;45426;44.726;10.390;2023-03-23T13:09:24;14.32;;;7.72;;
59607;SDS011;45426;44.726;10.390;2023-03-23T13:11:56;16.10;;;8.60;;
59607;SDS011;45426;44.726;10.390;2023-03-23T13:23:00;14.05;;;7.70;;
59607;SDS011;45426;44.726;10.390;2023-03-23T13:25:51;16.15;;;8.40;;
59607;SDS011;45426;44.726;10.390;2023-03-23T13:28:26;16.55;;;8.35;;
59607;SDS011;45426;44.726;10.390;2023-03-23T13:30:58;14.57;;;8.00;;
59607;SDS011;45426;44.726;10.390;2023-03-23T13:33:28;14.43;;;8.43;;
59607;SDS011;45426;44.726;10.390;2023-03-23T13:35:56;15.07;;;8.27;;
59607;SDS011;45426;44.726;10.390;2023-03-23T13:38:23;16.63;;;8.55;;
59607;SDS011;45426;44.726;10.390;2023-03-23T13:40:51;14.50;;;8.30;;
59607;SDS011;45426;44.726;10.390;2023-03-23T13:43:32;19.08;;;9.93;;
59607;SDS011;45426;44.726;10.390;2023-03-23T13:46:09;16.52;;;8.73;;
59607;SDS011;45426;44.726;10.390;2023-03-23T13:54:23;13.52;;;7.45;;
59607;SDS011;45426;44.726;10.390;2023-03-23T13:56:54;13.50;;;7.22;;
59607;SDS011;45426;44.726;10.390;2023-03-23T14:01:51;18.17;;;8.43;;
59607;SDS011;45426;44.726;10.390;2023-03-23T14:04:18;19.58;;;8.90;;
59607;SDS011;45426;44.726;10.390;2023-03-23T14:06:45;18.17;;;9.00;;
59607;SDS011;45426;44.726;10.390;2023-03-23T14:09:15;15.68;;;9.57;;
59607;SDS011;45426;44.726;10.390;2023-03-23T14:11:45;16.83;;;8.90;;
59607;SDS011;45426;44.726;10.390;2023-03-23T14:14:26;17.73;;;9.73;;
59607;SDS011;45426;44.726;10.390;2023-03-23T14:19:53;16.88;;;9.52;;
59607;SDS011;45426;44.726;10.390;2023-03-23T14:22:33;18.15;;;9.73;;
59607;SDS011;45426;44.726;10.390;2023-03-23T14:25:10;18.45;;;9.35;;
59607;SDS011;45426;44.726;10.390;2023-03-23T14:27:38;17.98;;;9.63;;
59607;SDS011;45426;44.726;10.390;2023-03-23T14:30:06;19.15;;;10.02;;
59607;SDS011;45426;44.726;10.390;2023-03-23T14:32:34;16.92;;;9.88;;
59607;SDS011;45426;44.726;10.390;2023-03-23T14:35:05;17.05;;;8.70;;
59607;SDS011;45426;44.726;10.390;2023-03-23T14:37:34;17.95;;;8.80;;
59607;SDS011;45426;44.726;10.390;2023-03-23T14:40:03;15.93;;;8.93;;
59607;SDS011;45426;44.726;10.390;2023-03-23T14:42:32;17.98;;;9.50;;
59607;SDS011;45426;44.726;10.390;2023-03-23T14:45:00;19.23;;;9.40;;
59607;SDS011;45426;44.726;10.390;2023-03-23T14:50:04;17.60;;;8.88;;
59607;SDS011;45426;44.726;10.390;2023-03-23T14:52:35;17.80;;;8.63;;
59607;SDS011;45426;44.726;10.390;2023-03-23T14:55:14;19.30;;;9.63;;
59607;SDS011;45426;44.726;10.390;2023-03-23T14:57:43;17.45;;;8.80;;
59607;SDS011;45426;44.726;10.390;2023-03-23T15:00:33;17.90;;;8.70;;
59607;SDS011;45426;44.726;10.390;2023-03-23T15:02:58;17.63;;;8.73;;
59607;SDS011;45426;44.726;10.390;2023-03-23T15:05:35;17.80;;;8.63;;
59607;SDS011;45426;44.726;10.390;2023-03-23T15:08:06;16.75;;;8.32;;
59607;SDS011;45426;44.726;10.390;2023-03-23T15:10:54;17.42;;;8.45;;
59607;SDS011;45426;44.726;10.390;2023-03-23T15:13:24;19.73;;;9.57;;
59607;SDS011;45426;44.726;10.390;2023-03-23T15:15:50;17.30;;;8.73;;
59607;SDS011;45426;44.726;10.390;2023-03-23T15:18:33;20.20;;;8.70;;
59607;SDS011;45426;44.726;10.390;2023-03-23T15:21:07;19.20;;;9.35;;
59607;SDS011;45426;44.726;10.390;2023-03-23T15:23:35;21.25;;;9.27;;
59607;SDS011;45426;44.726;10.390;2023-03-23T15:26:23;19.23;;;9.02;;
59607;SDS011;45426;44.726;10.390;2023-03-23T15:28:48;19.52;;;9.27;;
59607;SDS011;45426;44.726;10.390;2023-03-23T15:31:14;19.90;;;10.07;;
59607;SDS011;45426;44.726;10.390;2023-03-23T15:33:40;18.90;;;8.82;;
59607;SDS011;45426;44.726;10.390;2023-03-23T15:36:13;19.00;;;8.30;;
59607;SDS011;45426;44.726;10.390;2023-03-23T15:38:43;18.83;;;8.65;;
59607;SDS011;45426;44.726;10.390;2023-03-23T15:41:31;17.92;;;8.27;;
59607;SDS011;45426;44.726;10.390;2023-03-23T15:43:58;16.77;;;7.78;;
59607;SDS011;45426;44.726;10.390;2023-03-23T15:46:35;19.05;;;7.65;;
59607;SDS011;45426;44.726;10.390;2023-03-23T15:51:27;17.55;;;7.70;;
59607;SDS011;45426;44.726;10.390;2023-03-23T15:53:53;17.92;;;7.75;;
59607;SDS011;45426;44.726;10.390;2023-03-23T15:56:20;16.48;;;8.50;;
59607;SDS011;45426;44.726;10.390;2023-03-23T15:58:46;16.95;;;8.45;;
59607;SDS011;45426;44.726;10.390;2023-03-23T16:01:13;17.50;;;7.95;;
59607;SDS011;45426;44.726;10.390;2023-03-23T16:03:51;19.23;;;9.45;;
59607;SDS011;45426;44.726;10.390;2023-03-23T16:06:18;20.92;;;9.15;;
59607;SDS011;45426;44.726;10.390;2023-03-23T16:08:44;20.73;;;9.52;;
59607;SDS011;45426;44.726;10.390;2023-03-23T16:11:11;19.48;;;9.38;;
59607;SDS011;45426;44.726;10.390;2023-03-23T16:13:38;17.33;;;8.02;;
59607;SDS011;45426;44.726;10.390;2023-03-23T16:16:04;17.10;;;8.50;;
59607;SDS011;45426;44.726;10.390;2023-03-23T16:18:32;19.38;;;9.23;;
59607;SDS011;45426;44.726;10.390;2023-03-23T16:20:58;17.95;;;8.43;;
59607;SDS011;45426;44.726;10.390;2023-03-23T16:23:24;19.85;;;9.32;;
59607;SDS011;45426;44.726;10.390;2023-03-23T16:25:51;17.52;;;8.80;;
59607;SDS011;45426;44.726;10.390;2023-03-23T16:28:16;18.15;;;8.77;;
59607;SDS011;45426;44.726;10.390;2023-03-23T16:30:43;18.33;;;9.07;;
59607;SDS011;45426;44.726;10.390;2023-03-23T16:33:08;17.98;;;8.15;;
59607;SDS011;45426;44.726;10.390;2023-03-23T16:35:34;21.50;;;8.57;;
59607;SDS011;45426;44.726;10.390;2023-03-23T16:38:00;23.80;;;9.18;;
59607;SDS011;45426;44.726;10.390;2023-03-23T16:40:27;18.83;;;8.95;;
59607;SDS011;45426;44.726;10.390;2023-03-23T16:42:52;18.35;;;9.15;;
59607;SDS011;45426;44.726;10.390;2023-03-23T16:45:18;18.58;;;8.30;;
59607;SDS011;45426;44.726;10.390;2023-03-23T16:47:44;19.63;;;8.40;;